This is the latest recevied weather packets stored in our database for station/object KD9WYV. If no packets are shown the sender has not sent any weather packets the latest 10 day(s).
| Time | Temp. | Humidity | Pressure | Rain* | Wind** | Luminosity | Snow |
|---|---|---|---|---|---|---|---|
| 1777401207 | 19.44° C | 59% | 1015.6 hPa | 0 mm | - | 457 W/m² | - |
| 1777400903 | 18.89° C | 60% | 1015.4 hPa | 0 mm | - | 1115 W/m² | - |
| 1777400599 | 18.89° C | 60% | 1015.4 hPa | 0 mm | - | 739 W/m² | - |
| 1777400297 | 17.78° C | 63% | 1015.3 hPa | 0 mm | - | 990 W/m² | - |
| 1777399992 | 17.78° C | 64% | 1015.2 hPa | 0 mm | - | 833 W/m² | - |
| 1777399690 | 17.78° C | 64% | 1015.4 hPa | 0 mm | - | 368 W/m² | - |
| 1777399386 | 17.78° C | 62% | 1015.4 hPa | 0 mm | - | 626 W/m² | - |
| 1777399084 | 17.78° C | 63% | 1015.3 hPa | 0 mm | - | 897 W/m² | - |
| 1777398781 | 17.78° C | 63% | 1015.3 hPa | 0 mm | - | 393 W/m² | - |
| 1777398478 | 17.78° C | 63% | 1015.4 hPa | 0 mm | - | 457 W/m² | - |
| 1777398175 | 17.22° C | 63% | 1015.5 hPa | 0 mm | - | 549 W/m² | - |
| 1777397871 | 17.78° C | 64% | 1015.3 hPa | 0 mm | - | 576 W/m² | - |
| 1777397566 | 17.78° C | 62% | 1015.3 hPa | 0 mm | - | 437 W/m² | - |
| 1777397263 | 17.78° C | 62% | 1015.3 hPa | 0 mm | - | 515 W/m² | - |
| 1777396960 | 17.78° C | 62% | 1015.6 hPa | 0 mm | - | 430 W/m² | - |
| 1777396657 | 18.33° C | 59% | 1015.5 hPa | 0 mm | - | 957 W/m² | - |
| 1777396354 | 17.78° C | 62% | 1015.4 hPa | 0 mm | - | 1304 W/m² | - |
| 1777396051 | 16.67° C | 65% | 1015.5 hPa | 0 mm | - | 1147 W/m² | - |
| 1777395745 | 16.67° C | 67% | 1015.5 hPa | 0 mm | - | 1194 W/m² | - |
| 1777395441 | 16.67° C | 66% | 1015.8 hPa | 0 mm | - | 404 W/m² | - |
| 1777395139 | 17.22° C | 63% | 1015.6 hPa | 0 mm | - | 505 W/m² | - |
| 1777394836 | 16.67° C | 65% | 1015.9 hPa | 0 mm | - | 1015 W/m² | - |
| 1777394532 | 17.22° C | 64% | 1015.8 hPa | 0 mm | - | 1256 W/m² | - |
| 1777394229 | 16.67° C | 68% | 1015.5 hPa | 0 mm | - | 770 W/m² | - |
| 1777393924 | 16.11° C | 67% | 1015.6 hPa | 0 mm | - | 580 W/m² | - |
* Rain latest hour (hover to see other rain measurements)
** Current wind speed in m/s (hover to see current wind gust speed)